createdAt,value
2022-08-29T00:01:10.311Z,48.74
2022-08-29T00:03:38.075Z,49.26
2022-08-29T00:06:07.748Z,49.13
2022-08-29T00:08:34.641Z,49.19
2022-08-29T00:11:01.896Z,49.28
2022-08-29T00:13:28.840Z,49.11
2022-08-29T00:15:55.714Z,49.34
2022-08-29T00:18:23.774Z,49.50
2022-08-29T00:20:51.429Z,49.49
2022-08-29T00:23:18.380Z,49.34
2022-08-29T00:25:45.530Z,49.44
2022-08-29T00:28:12.707Z,49.51
2022-08-29T00:30:39.836Z,49.66
2022-08-29T00:33:06.823Z,49.58
2022-08-29T00:35:36.531Z,49.48
2022-08-29T00:38:09.476Z,49.39
2022-08-29T00:40:42.829Z,49.56
2022-08-29T00:43:21.675Z,49.46
2022-08-29T00:46:24.183Z,49.33
2022-08-29T00:48:57.820Z,49.38
2022-08-29T00:51:25.752Z,49.54
2022-08-29T00:53:54.375Z,49.59
2022-08-29T00:56:21.281Z,49.72
2022-08-29T00:58:54.472Z,49.76
2022-08-29T01:01:23.493Z,49.78
2022-08-29T01:03:51.240Z,49.71
2022-08-29T01:06:18.379Z,49.95
2022-08-29T01:08:45.325Z,49.83
2022-08-29T01:11:32.477Z,49.96
2022-08-29T01:13:59.520Z,50.19
2022-08-29T01:16:26.890Z,50.16
2022-08-29T01:18:56.597Z,50.16
2022-08-29T01:21:45.621Z,50.03
2022-08-29T01:24:15.539Z,50.13
2022-08-29T01:26:43.818Z,50.18
2022-08-29T01:29:11.077Z,50.18
2022-08-29T01:31:55.832Z,50.11
2022-08-29T01:34:25.965Z,50.30
2022-08-29T01:36:58.958Z,50.18
2022-08-29T01:39:28.471Z,50.34
2022-08-29T01:41:56.950Z,50.25
2022-08-29T01:44:25.604Z,50.34
2022-08-29T01:46:58.001Z,50.50
2022-08-29T01:49:29.615Z,50.71
2022-08-29T01:51:56.459Z,50.60
2022-08-29T01:54:23.676Z,50.58
2022-08-29T01:56:52.259Z,50.76
2022-08-29T01:59:21.623Z,50.72
2022-08-29T02:01:58.545Z,50.87
2022-08-29T02:04:25.511Z,50.91
2022-08-29T02:06:52.872Z,50.78
2022-08-29T02:09:20.673Z,51.05
2022-08-29T02:11:48.615Z,51.02
2022-08-29T02:14:19.118Z,51.03
2022-08-29T02:16:47.887Z,51.16
2022-08-29T02:19:15.607Z,51.02
2022-08-29T02:21:42.560Z,51.13
2022-08-29T02:24:25.059Z,51.14
2022-08-29T02:26:54.425Z,51.35
2022-08-29T02:29:21.647Z,51.14
2022-08-29T02:31:48.909Z,51.40
2022-08-29T02:34:16.258Z,51.39
2022-08-29T02:36:44.539Z,51.41
2022-08-29T02:39:12.509Z,51.39
2022-08-29T02:41:39.487Z,51.63
2022-08-29T02:44:11.526Z,51.70
2022-08-29T02:46:38.508Z,51.69
2022-08-29T02:49:06.142Z,51.84
2022-08-29T02:51:33.708Z,51.82
2022-08-29T02:54:00.964Z,52.19
2022-08-29T02:56:28.679Z,52.28
2022-08-29T02:58:55.677Z,52.38
2022-08-29T03:01:23.720Z,52.07
2022-08-29T03:03:50.706Z,52.11
2022-08-29T03:06:18.671Z,52.33
2022-08-29T03:08:46.235Z,52.42
2022-08-29T03:11:14.004Z,52.45
2022-08-29T03:13:41.267Z,52.42
2022-08-29T03:16:08.979Z,52.35
2022-08-29T03:18:36.698Z,52.27
2022-08-29T03:21:03.683Z,52.26
2022-08-29T03:23:31.012Z,52.22
2022-08-29T03:25:57.862Z,52.18
2022-08-29T03:28:25.337Z,52.31
2022-08-29T03:30:52.178Z,52.23
2022-08-29T03:33:19.466Z,52.22
2022-08-29T03:35:46.490Z,52.17
2022-08-29T03:38:13.991Z,52.09
2022-08-29T03:40:42.618Z,52.15
2022-08-29T03:43:10.010Z,52.15
2022-08-29T03:45:37.067Z,51.99
2022-08-29T03:48:04.839Z,52.01
2022-08-29T03:50:32.408Z,52.11
2022-08-29T03:52:59.694Z,51.77
2022-08-29T03:55:26.618Z,51.60
2022-08-29T03:57:56.166Z,51.60
2022-08-29T04:00:23.800Z,51.77
2022-08-29T04:02:53.896Z,51.43
2022-08-29T04:05:21.088Z,51.46
2022-08-29T04:07:54.168Z,51.42
2022-08-29T04:10:32.099Z,51.30
2022-08-29T04:13:00.110Z,51.27
2022-08-29T04:15:28.227Z,51.23
2022-08-29T04:17:57.758Z,51.15
2022-08-29T04:20:28.350Z,51.01
2022-08-29T04:22:55.560Z,50.88
2022-08-29T04:25:23.332Z,50.75
2022-08-29T04:27:50.436Z,50.62
2022-08-29T04:30:19.865Z,50.64
2022-08-29T04:32:47.654Z,50.44
2022-08-29T04:35:14.806Z,50.17
2022-08-29T04:37:42.158Z,50.15
2022-08-29T04:40:10.344Z,49.96
2022-08-29T04:42:37.993Z,49.81
2022-08-29T04:45:06.881Z,49.56
2022-08-29T04:47:37.525Z,49.37
2022-08-29T04:50:05.797Z,49.19
2022-08-29T04:52:32.747Z,48.95
2022-08-29T04:55:00.721Z,48.82
2022-08-29T04:57:28.378Z,48.60
2022-08-29T04:59:56.742Z,48.24
2022-08-29T05:02:24.758Z,48.06
2022-08-29T05:04:53.133Z,47.98
2022-08-29T05:07:25.712Z,47.67
2022-08-29T05:09:58.850Z,47.20
2022-08-29T05:12:28.275Z,47.01
2022-08-29T05:14:55.321Z,46.91
2022-08-29T05:17:22.797Z,46.58
2022-08-29T05:19:50.126Z,46.42
2022-08-29T05:22:17.893Z,46.16
2022-08-29T05:24:45.859Z,45.75
2022-08-29T05:27:18.830Z,45.41
2022-08-29T05:29:46.918Z,45.32
2022-08-29T05:32:19.042Z,45.09
2022-08-29T05:34:46.722Z,44.73
2022-08-29T05:37:15.863Z,44.33
2022-08-29T05:39:42.999Z,43.92
2022-08-29T05:42:10.966Z,43.54
2022-08-29T05:44:39.150Z,43.49
2022-08-29T05:47:08.440Z,43.00
2022-08-29T05:49:37.489Z,42.61
2022-08-29T05:52:04.584Z,42.04
2022-08-29T05:54:34.454Z,40.97
2022-08-29T05:57:01.751Z,41.12
2022-08-29T05:59:29.112Z,41.37
2022-08-29T06:01:57.383Z,41.36
2022-08-29T06:04:24.862Z,40.73
2022-08-29T06:06:52.152Z,40.31
2022-08-29T06:09:19.140Z,39.69
2022-08-29T06:11:47.656Z,39.83
2022-08-29T06:14:15.445Z,39.65
2022-08-29T06:16:42.544Z,38.86
2022-08-29T06:19:09.727Z,38.65
2022-08-29T06:21:37.161Z,38.51
2022-08-29T06:24:05.239Z,37.98
2022-08-29T06:26:32.483Z,37.17
2022-08-29T06:28:59.531Z,36.37
2022-08-29T06:31:29.502Z,36.63
2022-08-29T06:34:01.211Z,36.61
2022-08-29T06:36:29.171Z,35.87
2022-08-29T06:38:57.449Z,35.74
2022-08-29T06:41:25.311Z,35.75
2022-08-29T06:43:52.664Z,35.50
2022-08-29T06:46:31.060Z,34.99
2022-08-29T06:48:58.948Z,34.40
2022-08-29T06:51:26.627Z,34.52
2022-08-29T06:53:53.557Z,34.02
2022-08-29T06:56:20.696Z,33.38
2022-08-29T06:58:47.813Z,33.85
2022-08-29T07:01:17.201Z,33.49
2022-08-29T07:03:45.117Z,33.17
2022-08-29T07:06:12.060Z,32.79
2022-08-29T07:08:46.740Z,32.80
2022-08-29T07:11:27.357Z,33.06
2022-08-29T07:13:57.038Z,31.86
2022-08-29T07:16:27.191Z,32.21
2022-08-29T07:18:55.256Z,32.18
2022-08-29T07:21:24.117Z,32.31
2022-08-29T07:23:51.499Z,32.14
2022-08-29T07:26:20.748Z,31.60
2022-08-29T07:28:49.287Z,30.30
2022-08-29T07:31:17.453Z,30.61
2022-08-29T07:33:44.775Z,30.78
2022-08-29T07:36:12.790Z,30.66
2022-08-29T07:38:40.556Z,30.45
2022-08-29T07:41:10.260Z,30.47
2022-08-29T07:43:37.422Z,30.64
2022-08-29T07:46:08.647Z,29.67
2022-08-29T07:48:37.418Z,30.03
2022-08-29T07:51:11.160Z,29.64
2022-08-29T07:53:38.551Z,29.36
2022-08-29T07:56:09.965Z,29.70
2022-08-29T07:58:38.062Z,29.37
2022-08-29T08:01:06.310Z,29.05
2022-08-29T08:03:33.968Z,28.11
2022-08-29T08:06:01.116Z,28.28
2022-08-29T08:08:34.002Z,28.88
2022-08-29T08:11:04.967Z,28.67
2022-08-29T08:13:33.116Z,27.96
2022-08-29T08:16:03.234Z,27.37
2022-08-29T08:18:30.587Z,27.54
2022-08-29T08:20:57.736Z,26.99
2022-08-29T08:23:24.876Z,26.73
2022-08-29T08:25:51.836Z,26.94
2022-08-29T08:28:19.185Z,26.67
2022-08-29T08:30:47.688Z,26.78
2022-08-29T08:33:14.726Z,26.91
2022-08-29T08:35:42.257Z,26.56
2022-08-29T08:38:10.548Z,26.78
2022-08-29T08:40:42.901Z,26.54
2022-08-29T08:43:10.183Z,26.56
2022-08-29T08:45:38.869Z,26.20
2022-08-29T08:48:34.596Z,25.53
2022-08-29T08:51:07.074Z,24.86
2022-08-29T08:53:41.739Z,24.17
2022-08-29T08:56:19.302Z,25.05
2022-08-29T08:59:15.362Z,25.39
2022-08-29T09:01:56.475Z,24.75
2022-08-29T09:04:39.541Z,25.13
2022-08-29T09:07:25.841Z,25.51
2022-08-29T09:10:25.867Z,25.21
2022-08-29T09:13:19.032Z,24.68
2022-08-29T09:15:47.212Z,24.61
2022-08-29T09:18:24.237Z,24.62
2022-08-29T09:20:51.856Z,24.33
2022-08-29T09:23:31.664Z,24.26
2022-08-29T09:25:59.271Z,23.63
2022-08-29T09:28:26.730Z,22.92
2022-08-29T09:31:38.689Z,22.51
2022-08-29T09:34:11.964Z,23.29
2022-08-29T09:36:49.940Z,23.01
2022-08-29T09:39:24.324Z,22.23
2022-08-29T09:41:57.481Z,22.41
2022-08-29T09:44:26.029Z,22.46
2022-08-29T09:47:12.532Z,22.24
2022-08-29T09:49:41.321Z,22.37
2022-08-29T09:52:11.611Z,22.25
2022-08-29T09:54:38.715Z,22.36
2022-08-29T09:57:18.372Z,22.53
2022-08-29T09:59:46.100Z,21.96
2022-08-29T10:02:32.605Z,21.20
2022-08-29T10:05:13.068Z,21.78
2022-08-29T10:07:48.573Z,21.55
2022-08-29T10:10:16.976Z,21.56
2022-08-29T10:13:13.534Z,21.17
2022-08-29T10:15:50.813Z,21.36
2022-08-29T10:18:29.752Z,21.40
2022-08-29T10:21:41.450Z,20.97
2022-08-29T10:24:08.602Z,21.24
2022-08-29T10:27:17.055Z,20.45
2022-08-29T10:29:51.334Z,20.71
2022-08-29T10:32:24.525Z,20.77
2022-08-29T10:35:54.369Z,20.92
2022-08-29T10:38:40.535Z,21.39
2022-08-29T10:41:26.354Z,21.41
2022-08-29T10:44:02.491Z,21.28
2022-08-29T10:46:54.146Z,21.08
2022-08-29T10:49:36.415Z,20.95
2022-08-29T10:52:12.414Z,20.36
2022-08-29T10:54:59.160Z,20.44
2022-08-29T10:57:47.845Z,20.42
2022-08-29T11:00:20.619Z,19.82
2022-08-29T11:03:06.602Z,19.75
2022-08-29T11:05:39.389Z,19.11
2022-08-29T11:08:31.322Z,19.97
2022-08-29T11:10:58.305Z,19.91
2022-08-29T11:13:31.768Z,20.15
2022-08-29T11:16:45.273Z,20.00
2022-08-29T11:19:26.708Z,19.69
2022-08-29T11:21:56.714Z,19.70
2022-08-29T11:24:23.975Z,19.61
2022-08-29T11:27:04.959Z,19.53
2022-08-29T11:29:41.838Z,18.88
2022-08-29T11:32:45.440Z,18.88
2022-08-29T11:35:18.326Z,18.92
2022-08-29T11:38:09.545Z,19.13
2022-08-29T11:43:44.057Z,19.03
2022-08-29T11:46:11.958Z,19.14
2022-08-29T11:48:42.821Z,18.78
2022-08-29T11:51:34.243Z,18.36
2022-08-29T11:54:29.261Z,18.44
2022-08-29T11:57:04.295Z,17.86
2022-08-29T11:59:49.750Z,18.27
2022-08-29T12:02:29.284Z,18.50
2022-08-29T12:04:56.645Z,18.18
2022-08-29T12:07:39.059Z,18.38
2022-08-29T12:10:11.530Z,18.40
2022-08-29T12:12:44.179Z,18.20
2022-08-29T12:15:27.950Z,18.47
2022-08-29T12:18:02.516Z,17.96
2022-08-29T12:20:30.546Z,17.50
2022-08-29T12:23:07.164Z,17.77
2022-08-29T12:26:03.727Z,17.86
2022-08-29T12:28:58.658Z,18.06
2022-08-29T12:32:02.159Z,18.09
2022-08-29T12:34:35.557Z,18.48
2022-08-29T12:37:14.792Z,18.53
2022-08-29T12:39:53.821Z,18.34
2022-08-29T12:42:36.025Z,18.54
2022-08-29T12:45:06.526Z,18.75
2022-08-29T12:47:40.109Z,18.16
2022-08-29T12:50:23.488Z,18.49
2022-08-29T12:53:02.833Z,18.53
2022-08-29T12:55:38.469Z,18.55
2022-08-29T12:58:06.725Z,17.93
2022-08-29T13:00:34.219Z,17.65
2022-08-29T13:03:09.489Z,18.11
2022-08-29T13:05:42.554Z,17.79
2022-08-29T13:08:13.211Z,17.96
2022-08-29T13:10:51.702Z,17.67
2022-08-29T13:13:20.089Z,18.17
2022-08-29T13:15:51.386Z,18.08
2022-08-29T13:18:18.483Z,17.95
2022-08-29T13:20:50.686Z,18.03
2022-08-29T13:23:45.985Z,17.99
2022-08-29T13:26:14.345Z,17.98
2022-08-29T13:28:45.524Z,18.09
2022-08-29T13:31:12.562Z,17.78
2022-08-29T13:34:01.428Z,17.61
2022-08-29T13:36:28.451Z,17.51
2022-08-29T13:39:17.524Z,17.75
2022-08-29T13:41:49.484Z,18.20
2022-08-29T13:44:20.224Z,18.43
2022-08-29T13:46:47.943Z,18.84
2022-08-29T13:49:22.564Z,19.29
2022-08-29T13:51:49.799Z,19.17
2022-08-29T13:54:16.716Z,20.10
2022-08-29T13:56:43.848Z,20.24
2022-08-29T13:59:12.037Z,20.34
2022-08-29T14:04:38.116Z,20.41
2022-08-29T14:07:05.738Z,20.60
2022-08-29T14:09:36.706Z,20.86
2022-08-29T14:12:04.554Z,21.24
2022-08-29T14:14:31.897Z,21.41
2022-08-29T14:16:58.935Z,21.84
2022-08-29T14:19:28.032Z,22.23
2022-08-29T14:21:56.298Z,22.50
2022-08-29T14:24:27.313Z,22.75
2022-08-29T14:27:01.454Z,22.93
2022-08-29T14:29:33.395Z,23.49
2022-08-29T14:32:02.964Z,23.81
2022-08-29T14:34:32.878Z,24.20
2022-08-29T14:37:01.450Z,24.54
2022-08-29T14:39:28.894Z,24.99
2022-08-29T14:41:55.911Z,24.77
2022-08-29T14:44:23.268Z,24.65
2022-08-29T14:46:51.129Z,24.93
2022-08-29T14:49:18.593Z,25.13
2022-08-29T14:51:45.640Z,25.29
2022-08-29T14:54:13.320Z,25.39
2022-08-29T14:56:49.086Z,25.49
2022-08-29T14:59:18.825Z,25.16
2022-08-29T15:01:52.683Z,25.18
2022-08-29T15:04:21.750Z,25.32
2022-08-29T15:07:04.900Z,25.15
2022-08-29T15:09:32.568Z,25.04
2022-08-29T15:11:59.925Z,25.33
2022-08-29T15:14:27.283Z,25.44
2022-08-29T15:16:54.434Z,25.48
2022-08-29T15:19:53.673Z,25.30
2022-08-29T15:22:09.039Z,25.47
2022-08-29T15:24:36.366Z,25.43
2022-08-29T15:27:03.677Z,25.66
2022-08-29T15:29:30.898Z,25.71
2022-08-29T15:31:58.356Z,25.60
2022-08-29T15:34:26.076Z,26.12
2022-08-29T15:36:55.270Z,26.14
2022-08-29T15:39:22.750Z,26.02
2022-08-29T15:41:49.803Z,26.17
2022-08-29T15:44:16.852Z,26.60
2022-08-29T15:46:50.470Z,26.60
2022-08-29T15:49:19.658Z,26.66
2022-08-29T15:51:47.731Z,26.71
2022-08-29T15:54:15.636Z,26.67
2022-08-29T15:56:42.758Z,26.97
2022-08-29T15:59:10.737Z,26.84
2022-08-29T16:01:41.213Z,26.94
2022-08-29T16:04:08.616Z,27.19
2022-08-29T16:06:36.125Z,27.27
2022-08-29T16:09:04.492Z,27.00
2022-08-29T16:11:43.082Z,27.03
2022-08-29T16:14:46.624Z,27.15
2022-08-29T16:16:57.771Z,27.20
2022-08-29T16:19:24.719Z,27.44
2022-08-29T16:21:51.667Z,27.49
2022-08-29T16:24:18.717Z,27.52
2022-08-29T16:26:46.010Z,27.58
2022-08-29T16:29:13.237Z,27.82
2022-08-29T16:31:40.276Z,27.91
2022-08-29T16:34:08.520Z,28.00
2022-08-29T16:36:35.614Z,28.07
2022-08-29T16:39:05.325Z,28.54
2022-08-29T16:41:32.690Z,28.63
2022-08-29T16:44:03.817Z,28.87
2022-08-29T16:46:32.581Z,29.10
2022-08-29T16:49:00.776Z,29.22
2022-08-29T16:51:27.926Z,29.42
2022-08-29T16:53:55.088Z,29.52
2022-08-29T16:56:22.020Z,29.43
2022-08-29T16:59:04.758Z,29.68
2022-08-29T17:01:46.073Z,29.82
2022-08-29T17:04:16.231Z,29.97
2022-08-29T17:06:43.891Z,30.03
2022-08-29T17:09:10.836Z,30.23
2022-08-29T17:11:38.257Z,30.56
2022-08-29T17:14:07.590Z,30.77
2022-08-29T17:16:36.482Z,31.17
2022-08-29T17:19:04.394Z,31.15
2022-08-29T17:21:32.213Z,31.50
2022-08-29T17:24:02.684Z,31.76
2022-08-29T17:26:30.804Z,31.71
2022-08-29T17:28:57.854Z,31.79
2022-08-29T17:31:24.900Z,32.33
2022-08-29T17:33:52.053Z,32.25
2022-08-29T17:36:19.668Z,32.27
2022-08-29T17:38:48.618Z,32.54
2022-08-29T17:41:19.358Z,32.80
2022-08-29T17:43:48.731Z,33.05
2022-08-29T17:46:19.086Z,33.48
2022-08-29T17:48:46.407Z,33.46
2022-08-29T17:51:14.117Z,33.66
2022-08-29T17:53:42.960Z,34.18
2022-08-29T17:56:20.100Z,34.52
2022-08-29T17:58:47.598Z,35.30
2022-08-29T18:01:16.449Z,35.45
2022-08-29T18:03:45.072Z,36.51
2022-08-29T18:06:14.863Z,36.28
2022-08-29T18:08:48.098Z,36.83
2022-08-29T18:11:16.593Z,37.02
2022-08-29T18:13:44.297Z,36.53
2022-08-29T18:16:15.018Z,36.44
2022-08-29T18:18:47.530Z,36.46
2022-08-29T18:21:18.405Z,36.66
2022-08-29T18:23:45.813Z,36.69
2022-08-29T18:26:14.085Z,36.88
2022-08-29T18:28:41.460Z,37.30
2022-08-29T18:31:09.176Z,37.15
2022-08-29T18:33:57.360Z,37.25
2022-08-29T18:36:24.320Z,37.33
2022-08-29T18:38:51.588Z,37.78
2022-08-29T18:41:18.522Z,37.92
2022-08-29T18:43:45.654Z,38.39
2022-08-29T18:46:13.255Z,38.51
2022-08-29T18:48:41.495Z,38.54
2022-08-29T18:51:08.990Z,38.55
2022-08-29T18:53:36.153Z,38.71
2022-08-29T18:56:03.567Z,39.32
2022-08-29T18:58:31.749Z,39.53
2022-08-29T19:00:59.639Z,39.37
2022-08-29T19:03:26.772Z,40.24
2022-08-29T19:05:54.231Z,39.80
2022-08-29T19:08:24.796Z,39.99
2022-08-29T19:10:55.305Z,39.66
2022-08-29T19:13:22.636Z,39.70
2022-08-29T19:15:56.134Z,40.22
2022-08-29T19:18:23.202Z,40.35
2022-08-29T19:21:09.748Z,40.51
2022-08-29T19:23:41.582Z,40.57
2022-08-29T19:26:13.648Z,40.78
2022-08-29T19:28:41.111Z,41.28
2022-08-29T19:31:08.188Z,41.29
2022-08-29T19:33:35.619Z,40.99
2022-08-29T19:36:04.003Z,41.07
2022-08-29T19:38:31.668Z,41.36
2022-08-29T19:40:59.433Z,41.64
2022-08-29T19:43:28.257Z,41.57
2022-08-29T19:45:56.066Z,41.55
2022-08-29T19:48:23.448Z,41.69
2022-08-29T19:50:52.367Z,41.65
2022-08-29T19:53:26.158Z,41.51
2022-08-29T19:55:56.890Z,41.50
2022-08-29T19:58:31.386Z,41.55
2022-08-29T20:01:07.122Z,41.55
2022-08-29T20:03:34.310Z,41.62
2022-08-29T20:06:06.272Z,41.73
2022-08-29T20:08:39.989Z,41.74
2022-08-29T20:11:10.099Z,41.74
2022-08-29T20:13:38.378Z,41.72
2022-08-29T20:16:12.234Z,41.82
2022-08-29T20:18:41.080Z,41.89
2022-08-29T20:21:08.132Z,41.98
2022-08-29T20:23:35.280Z,41.87
2022-08-29T20:26:02.262Z,42.02
2022-08-29T20:28:31.193Z,42.04
2022-08-29T20:30:58.990Z,42.29
2022-08-29T20:33:26.039Z,42.28
2022-08-29T20:36:11.624Z,42.22
2022-08-29T20:38:39.086Z,42.27
2022-08-29T20:41:06.542Z,42.38
2022-08-29T20:43:35.639Z,42.33
2022-08-29T20:46:09.886Z,42.20
2022-08-29T20:48:37.013Z,42.32
2022-08-29T20:51:06.701Z,42.30
2022-08-29T20:53:34.921Z,42.34
2022-08-29T20:56:02.461Z,42.39
2022-08-29T20:58:30.333Z,42.46
2022-08-29T21:00:58.556Z,42.45
2022-08-29T21:03:45.011Z,42.32
2022-08-29T21:06:12.602Z,42.32
2022-08-29T21:08:41.262Z,42.28
2022-08-29T21:11:08.316Z,42.26
2022-08-29T21:13:35.364Z,42.15
2022-08-29T21:16:04.757Z,42.24
2022-08-29T21:18:31.873Z,42.21
2022-08-29T21:21:00.352Z,42.30
2022-08-29T21:23:27.490Z,42.43
2022-08-29T21:25:56.046Z,42.62
2022-08-29T21:28:24.961Z,42.33
2022-08-29T21:30:52.214Z,42.22
2022-08-29T21:33:21.529Z,42.45
2022-08-29T21:35:50.000Z,42.58
2022-08-29T21:38:17.853Z,42.62
2022-08-29T21:40:50.381Z,42.63
2022-08-29T21:43:20.977Z,42.74
2022-08-29T21:45:49.213Z,42.79
2022-08-29T21:48:17.222Z,42.91
2022-08-29T21:50:44.682Z,42.80
2022-08-29T21:53:14.009Z,42.85
2022-08-29T21:55:41.762Z,42.94
2022-08-29T21:58:09.020Z,42.94
2022-08-29T22:00:36.893Z,42.90
2022-08-29T22:03:05.970Z,42.91
2022-08-29T22:05:34.174Z,43.02
2022-08-29T22:08:04.163Z,43.16
2022-08-29T22:10:34.624Z,43.29
2022-08-29T22:13:02.106Z,43.43
2022-08-29T22:15:47.726Z,43.61
2022-08-29T22:18:15.877Z,43.57
2022-08-29T22:20:43.411Z,43.52
2022-08-29T22:23:10.770Z,43.51
2022-08-29T22:25:37.718Z,43.73
2022-08-29T22:28:08.153Z,43.98
2022-08-29T22:30:35.101Z,43.89
2022-08-29T22:33:02.563Z,43.90
2022-08-29T22:35:29.591Z,43.97
2022-08-29T22:37:56.665Z,44.10
2022-08-29T22:40:23.984Z,44.14
2022-08-29T22:42:51.023Z,44.26
2022-08-29T22:45:18.750Z,44.59
2022-08-29T22:47:47.028Z,44.83
2022-08-29T22:50:17.396Z,44.78
2022-08-29T22:52:44.923Z,44.75
2022-08-29T22:55:16.281Z,44.72
2022-08-29T22:57:45.358Z,45.03
2022-08-29T23:00:15.039Z,45.00
2022-08-29T23:02:42.252Z,45.15
2022-08-29T23:05:10.256Z,45.35
2022-08-29T23:07:37.585Z,45.59
2022-08-29T23:10:05.659Z,45.71
2022-08-29T23:12:33.017Z,46.02
2022-08-29T23:14:59.899Z,45.96
2022-08-29T23:17:27.331Z,45.63
2022-08-29T23:19:54.216Z,45.66
2022-08-29T23:22:21.333Z,45.80
2022-08-29T23:24:57.841Z,45.66
2022-08-29T23:27:29.464Z,45.90
2022-08-29T23:29:57.439Z,46.07
2022-08-29T23:32:25.313Z,46.17
2022-08-29T23:34:52.260Z,46.63
2022-08-29T23:37:19.213Z,46.76
2022-08-29T23:39:46.983Z,46.99
2022-08-29T23:42:14.447Z,47.01
2022-08-29T23:44:41.908Z,46.90
2022-08-29T23:47:08.857Z,46.79
2022-08-29T23:49:35.921Z,46.74
2022-08-29T23:52:03.890Z,46.81
2022-08-29T23:54:31.758Z,46.72
2022-08-29T23:56:59.323Z,46.74
2022-08-29T23:59:44.912Z,46.89
